sensor_id;sensor_type;location;lat;lon;timestamp;P1;durP1;ratioP1;P2;durP2;ratioP2
17441;SDS011;8838;50.144;8.176;2022-11-30T00:01:28;75.10;;;27.83;;
17441;SDS011;8838;50.144;8.176;2022-11-30T00:03:55;75.87;;;27.77;;
17441;SDS011;8838;50.144;8.176;2022-11-30T00:06:22;77.60;;;27.83;;
17441;SDS011;8838;50.144;8.176;2022-11-30T00:08:52;70.90;;;29.13;;
17441;SDS011;8838;50.144;8.176;2022-11-30T00:11:19;77.70;;;28.97;;
17441;SDS011;8838;50.144;8.176;2022-11-30T00:13:47;78.40;;;30.80;;
17441;SDS011;8838;50.144;8.176;2022-11-30T00:16:14;82.60;;;28.93;;
17441;SDS011;8838;50.144;8.176;2022-11-30T00:18:41;80.67;;;29.70;;
17441;SDS011;8838;50.144;8.176;2022-11-30T00:21:09;79.43;;;28.93;;
17441;SDS011;8838;50.144;8.176;2022-11-30T00:23:39;78.87;;;29.20;;
17441;SDS011;8838;50.144;8.176;2022-11-30T00:26:09;79.83;;;30.60;;
17441;SDS011;8838;50.144;8.176;2022-11-30T00:28:37;79.63;;;29.57;;
17441;SDS011;8838;50.144;8.176;2022-11-30T00:31:05;78.80;;;29.80;;
17441;SDS011;8838;50.144;8.176;2022-11-30T00:33:34;89.00;;;31.10;;
17441;SDS011;8838;50.144;8.176;2022-11-30T00:36:02;76.33;;;29.40;;
17441;SDS011;8838;50.144;8.176;2022-11-30T00:38:31;90.90;;;30.00;;
17441;SDS011;8838;50.144;8.176;2022-11-30T00:40:58;84.50;;;29.90;;
17441;SDS011;8838;50.144;8.176;2022-11-30T00:43:27;91.27;;;30.97;;
17441;SDS011;8838;50.144;8.176;2022-11-30T00:45:54;84.33;;;30.90;;
17441;SDS011;8838;50.144;8.176;2022-11-30T00:48:21;86.37;;;30.10;;
17441;SDS011;8838;50.144;8.176;2022-11-30T00:50:48;86.83;;;31.43;;
17441;SDS011;8838;50.144;8.176;2022-11-30T00:53:15;92.77;;;32.07;;
17441;SDS011;8838;50.144;8.176;2022-11-30T00:55:42;89.90;;;30.93;;
17441;SDS011;8838;50.144;8.176;2022-11-30T00:58:09;92.40;;;31.37;;
17441;SDS011;8838;50.144;8.176;2022-11-30T01:00:38;103.30;;;33.23;;
17441;SDS011;8838;50.144;8.176;2022-11-30T01:03:05;90.90;;;32.20;;
17441;SDS011;8838;50.144;8.176;2022-11-30T01:05:32;88.07;;;31.23;;
17441;SDS011;8838;50.144;8.176;2022-11-30T01:07:59;89.67;;;30.90;;
17441;SDS011;8838;50.144;8.176;2022-11-30T01:10:26;103.53;;;33.33;;
17441;SDS011;8838;50.144;8.176;2022-11-30T01:12:53;91.50;;;31.33;;
17441;SDS011;8838;50.144;8.176;2022-11-30T01:15:20;91.93;;;32.73;;
17441;SDS011;8838;50.144;8.176;2022-11-30T01:17:48;103.73;;;33.03;;
17441;SDS011;8838;50.144;8.176;2022-11-30T01:20:15;92.80;;;33.33;;
17441;SDS011;8838;50.144;8.176;2022-11-30T01:22:42;97.87;;;32.37;;
17441;SDS011;8838;50.144;8.176;2022-11-30T01:25:09;101.10;;;32.37;;
17441;SDS011;8838;50.144;8.176;2022-11-30T01:27:36;101.07;;;33.70;;
17441;SDS011;8838;50.144;8.176;2022-11-30T01:30:06;106.40;;;34.77;;
17441;SDS011;8838;50.144;8.176;2022-11-30T01:32:33;99.50;;;33.27;;
17441;SDS011;8838;50.144;8.176;2022-11-30T01:35:01;92.13;;;31.23;;
17441;SDS011;8838;50.144;8.176;2022-11-30T01:37:28;102.13;;;32.97;;
17441;SDS011;8838;50.144;8.176;2022-11-30T01:39:55;108.43;;;34.43;;
17441;SDS011;8838;50.144;8.176;2022-11-30T01:42:22;99.63;;;32.77;;
17441;SDS011;8838;50.144;8.176;2022-11-30T01:44:50;99.60;;;32.07;;
17441;SDS011;8838;50.144;8.176;2022-11-30T01:47:28;93.73;;;32.40;;
17441;SDS011;8838;50.144;8.176;2022-11-30T01:50:00;99.70;;;31.87;;
17441;SDS011;8838;50.144;8.176;2022-11-30T01:52:32;91.67;;;31.13;;
17441;SDS011;8838;50.144;8.176;2022-11-30T01:55:05;109.27;;;32.93;;
17441;SDS011;8838;50.144;8.176;2022-11-30T01:57:38;90.53;;;32.27;;
17441;SDS011;8838;50.144;8.176;2022-11-30T02:00:09;104.97;;;32.37;;
17441;SDS011;8838;50.144;8.176;2022-11-30T02:02:39;91.23;;;31.23;;
17441;SDS011;8838;50.144;8.176;2022-11-30T02:05:13;94.63;;;29.77;;
17441;SDS011;8838;50.144;8.176;2022-11-30T02:07:40;94.90;;;30.63;;
17441;SDS011;8838;50.144;8.176;2022-11-30T02:10:11;98.40;;;30.87;;
17441;SDS011;8838;50.144;8.176;2022-11-30T02:12:43;95.50;;;31.23;;
17441;SDS011;8838;50.144;8.176;2022-11-30T02:15:26;100.47;;;31.07;;
17441;SDS011;8838;50.144;8.176;2022-11-30T02:17:57;99.23;;;31.07;;
17441;SDS011;8838;50.144;8.176;2022-11-30T02:20:40;101.43;;;31.97;;
17441;SDS011;8838;50.144;8.176;2022-11-30T02:26:23;109.97;;;31.60;;
17441;SDS011;8838;50.144;8.176;2022-11-30T02:29:07;102.93;;;31.27;;
17441;SDS011;8838;50.144;8.176;2022-11-30T02:31:40;101.37;;;30.23;;
17441;SDS011;8838;50.144;8.176;2022-11-30T02:34:12;103.97;;;31.83;;
17441;SDS011;8838;50.144;8.176;2022-11-30T02:36:41;105.07;;;31.90;;
17441;SDS011;8838;50.144;8.176;2022-11-30T02:39:11;107.60;;;32.57;;
17441;SDS011;8838;50.144;8.176;2022-11-30T02:41:38;95.53;;;31.43;;
17441;SDS011;8838;50.144;8.176;2022-11-30T02:44:08;95.27;;;31.60;;
17441;SDS011;8838;50.144;8.176;2022-11-30T02:46:38;94.43;;;31.97;;
17441;SDS011;8838;50.144;8.176;2022-11-30T02:49:18;95.13;;;29.67;;
17441;SDS011;8838;50.144;8.176;2022-11-30T02:51:52;95.83;;;31.13;;
17441;SDS011;8838;50.144;8.176;2022-11-30T02:54:20;100.77;;;30.77;;
17441;SDS011;8838;50.144;8.176;2022-11-30T02:56:47;83.63;;;28.53;;
17441;SDS011;8838;50.144;8.176;2022-11-30T02:59:15;94.93;;;29.03;;
17441;SDS011;8838;50.144;8.176;2022-11-30T03:01:42;86.03;;;30.73;;
17441;SDS011;8838;50.144;8.176;2022-11-30T03:04:09;84.67;;;27.77;;
17441;SDS011;8838;50.144;8.176;2022-11-30T03:06:36;83.30;;;27.80;;
17441;SDS011;8838;50.144;8.176;2022-11-30T03:09:03;85.53;;;26.47;;
17441;SDS011;8838;50.144;8.176;2022-11-30T03:11:30;80.60;;;26.63;;
17441;SDS011;8838;50.144;8.176;2022-11-30T03:13:57;83.17;;;27.70;;
17441;SDS011;8838;50.144;8.176;2022-11-30T03:16:25;73.80;;;25.07;;
17441;SDS011;8838;50.144;8.176;2022-11-30T03:18:52;76.13;;;25.80;;
17441;SDS011;8838;50.144;8.176;2022-11-30T03:21:18;72.50;;;25.63;;
17441;SDS011;8838;50.144;8.176;2022-11-30T03:23:45;71.10;;;25.67;;
17441;SDS011;8838;50.144;8.176;2022-11-30T03:26:12;70.63;;;24.27;;
17441;SDS011;8838;50.144;8.176;2022-11-30T03:28:39;68.40;;;24.67;;
17441;SDS011;8838;50.144;8.176;2022-11-30T03:31:06;73.20;;;24.33;;
17441;SDS011;8838;50.144;8.176;2022-11-30T03:33:38;76.77;;;25.20;;
17441;SDS011;8838;50.144;8.176;2022-11-30T03:36:06;75.83;;;24.93;;
17441;SDS011;8838;50.144;8.176;2022-11-30T03:38:35;66.57;;;23.43;;
17441;SDS011;8838;50.144;8.176;2022-11-30T03:41:03;68.27;;;22.83;;
17441;SDS011;8838;50.144;8.176;2022-11-30T03:43:31;60.17;;;21.70;;
17441;SDS011;8838;50.144;8.176;2022-11-30T03:45:58;61.93;;;21.90;;
17441;SDS011;8838;50.144;8.176;2022-11-30T03:48:25;59.07;;;22.20;;
17441;SDS011;8838;50.144;8.176;2022-11-30T03:50:53;56.03;;;21.20;;
17441;SDS011;8838;50.144;8.176;2022-11-30T03:53:20;58.67;;;21.70;;
17441;SDS011;8838;50.144;8.176;2022-11-30T03:55:50;50.30;;;20.70;;
17441;SDS011;8838;50.144;8.176;2022-11-30T03:58:17;61.73;;;20.90;;
17441;SDS011;8838;50.144;8.176;2022-11-30T04:00:44;61.43;;;21.37;;
17441;SDS011;8838;50.144;8.176;2022-11-30T04:03:11;52.87;;;19.33;;
17441;SDS011;8838;50.144;8.176;2022-11-30T04:05:38;52.30;;;20.30;;
17441;SDS011;8838;50.144;8.176;2022-11-30T04:08:06;52.87;;;19.53;;
17441;SDS011;8838;50.144;8.176;2022-11-30T04:10:33;52.07;;;18.73;;
17441;SDS011;8838;50.144;8.176;2022-11-30T04:13:00;48.53;;;19.07;;
17441;SDS011;8838;50.144;8.176;2022-11-30T04:15:26;49.60;;;18.17;;
17441;SDS011;8838;50.144;8.176;2022-11-30T04:17:54;42.10;;;17.13;;
17441;SDS011;8838;50.144;8.176;2022-11-30T04:20:21;41.23;;;17.07;;
17441;SDS011;8838;50.144;8.176;2022-11-30T04:22:48;42.87;;;16.63;;
17441;SDS011;8838;50.144;8.176;2022-11-30T04:25:16;40.00;;;15.63;;
17441;SDS011;8838;50.144;8.176;2022-11-30T04:27:43;36.63;;;14.87;;
17441;SDS011;8838;50.144;8.176;2022-11-30T04:30:12;37.47;;;14.07;;
17441;SDS011;8838;50.144;8.176;2022-11-30T04:32:39;35.73;;;14.97;;
17441;SDS011;8838;50.144;8.176;2022-11-30T04:35:06;31.63;;;14.27;;
17441;SDS011;8838;50.144;8.176;2022-11-30T04:37:33;30.57;;;13.70;;
17441;SDS011;8838;50.144;8.176;2022-11-30T04:40:00;29.17;;;13.50;;
17441;SDS011;8838;50.144;8.176;2022-11-30T04:42:28;28.77;;;12.40;;
17441;SDS011;8838;50.144;8.176;2022-11-30T04:44:55;30.33;;;12.87;;
17441;SDS011;8838;50.144;8.176;2022-11-30T04:47:22;29.53;;;13.07;;
17441;SDS011;8838;50.144;8.176;2022-11-30T04:49:49;28.10;;;12.33;;
17441;SDS011;8838;50.144;8.176;2022-11-30T04:52:15;29.20;;;12.47;;
17441;SDS011;8838;50.144;8.176;2022-11-30T04:54:42;25.10;;;12.30;;
17441;SDS011;8838;50.144;8.176;2022-11-30T04:57:09;27.93;;;12.23;;
17441;SDS011;8838;50.144;8.176;2022-11-30T04:59:37;27.77;;;12.43;;
17441;SDS011;8838;50.144;8.176;2022-11-30T05:02:04;27.00;;;12.13;;
17441;SDS011;8838;50.144;8.176;2022-11-30T05:04:30;28.23;;;13.07;;
17441;SDS011;8838;50.144;8.176;2022-11-30T05:06:57;29.60;;;13.50;;
17441;SDS011;8838;50.144;8.176;2022-11-30T05:09:24;27.77;;;13.20;;
17441;SDS011;8838;50.144;8.176;2022-11-30T05:11:51;30.67;;;13.40;;
17441;SDS011;8838;50.144;8.176;2022-11-30T05:14:18;33.87;;;14.43;;
17441;SDS011;8838;50.144;8.176;2022-11-30T05:16:47;29.80;;;13.70;;
17441;SDS011;8838;50.144;8.176;2022-11-30T05:19:14;31.20;;;13.97;;
17441;SDS011;8838;50.144;8.176;2022-11-30T05:21:41;33.00;;;14.20;;
17441;SDS011;8838;50.144;8.176;2022-11-30T05:24:08;35.17;;;14.10;;
17441;SDS011;8838;50.144;8.176;2022-11-30T05:26:35;33.23;;;14.30;;
17441;SDS011;8838;50.144;8.176;2022-11-30T05:29:02;34.73;;;14.80;;
17441;SDS011;8838;50.144;8.176;2022-11-30T05:31:30;35.10;;;14.97;;
17441;SDS011;8838;50.144;8.176;2022-11-30T05:33:59;31.20;;;13.80;;
17441;SDS011;8838;50.144;8.176;2022-11-30T05:36:26;33.23;;;14.77;;
17441;SDS011;8838;50.144;8.176;2022-11-30T05:38:53;36.27;;;15.17;;
17441;SDS011;8838;50.144;8.176;2022-11-30T05:41:20;39.20;;;15.27;;
17441;SDS011;8838;50.144;8.176;2022-11-30T05:43:47;34.83;;;14.77;;
17441;SDS011;8838;50.144;8.176;2022-11-30T05:46:13;45.93;;;15.33;;
17441;SDS011;8838;50.144;8.176;2022-11-30T05:48:40;40.43;;;15.53;;
17441;SDS011;8838;50.144;8.176;2022-11-30T05:51:09;36.83;;;15.17;;
17441;SDS011;8838;50.144;8.176;2022-11-30T05:53:39;38.60;;;16.33;;
17441;SDS011;8838;50.144;8.176;2022-11-30T05:56:07;40.70;;;15.83;;
17441;SDS011;8838;50.144;8.176;2022-11-30T05:58:35;41.50;;;16.03;;
17441;SDS011;8838;50.144;8.176;2022-11-30T06:01:03;41.20;;;16.57;;
17441;SDS011;8838;50.144;8.176;2022-11-30T06:03:31;44.70;;;16.50;;
17441;SDS011;8838;50.144;8.176;2022-11-30T06:05:58;39.40;;;16.50;;
17441;SDS011;8838;50.144;8.176;2022-11-30T06:08:27;45.17;;;16.10;;
17441;SDS011;8838;50.144;8.176;2022-11-30T06:10:58;39.53;;;16.10;;
17441;SDS011;8838;50.144;8.176;2022-11-30T06:13:25;38.93;;;16.37;;
17441;SDS011;8838;50.144;8.176;2022-11-30T06:15:52;46.47;;;16.50;;
17441;SDS011;8838;50.144;8.176;2022-11-30T06:18:19;45.13;;;17.27;;
17441;SDS011;8838;50.144;8.176;2022-11-30T06:20:46;40.73;;;16.80;;
17441;SDS011;8838;50.144;8.176;2022-11-30T06:23:13;39.47;;;16.43;;
17441;SDS011;8838;50.144;8.176;2022-11-30T06:25:41;41.83;;;16.97;;
17441;SDS011;8838;50.144;8.176;2022-11-30T06:28:08;38.00;;;16.10;;
17441;SDS011;8838;50.144;8.176;2022-11-30T06:30:35;39.33;;;15.97;;
17441;SDS011;8838;50.144;8.176;2022-11-30T06:33:02;37.30;;;15.53;;
17441;SDS011;8838;50.144;8.176;2022-11-30T06:35:29;42.40;;;17.00;;
17441;SDS011;8838;50.144;8.176;2022-11-30T06:37:56;39.33;;;16.13;;
17441;SDS011;8838;50.144;8.176;2022-11-30T06:40:24;39.53;;;15.53;;
17441;SDS011;8838;50.144;8.176;2022-11-30T06:42:53;35.83;;;14.60;;
17441;SDS011;8838;50.144;8.176;2022-11-30T06:45:20;37.50;;;15.87;;
17441;SDS011;8838;50.144;8.176;2022-11-30T06:47:47;31.67;;;13.23;;
17441;SDS011;8838;50.144;8.176;2022-11-30T06:50:14;27.70;;;13.07;;
17441;SDS011;8838;50.144;8.176;2022-11-30T06:52:41;34.37;;;14.23;;
17441;SDS011;8838;50.144;8.176;2022-11-30T06:55:08;33.60;;;14.43;;
17441;SDS011;8838;50.144;8.176;2022-11-30T06:57:35;33.80;;;15.07;;
17441;SDS011;8838;50.144;8.176;2022-11-30T07:00:03;35.53;;;14.37;;
17441;SDS011;8838;50.144;8.176;2022-11-30T07:02:32;32.10;;;13.60;;
17441;SDS011;8838;50.144;8.176;2022-11-30T07:05:00;29.93;;;13.00;;
17441;SDS011;8838;50.144;8.176;2022-11-30T07:07:27;29.37;;;13.17;;
17441;SDS011;8838;50.144;8.176;2022-11-30T07:09:56;32.30;;;13.63;;
17441;SDS011;8838;50.144;8.176;2022-11-30T07:12:23;29.13;;;12.67;;
17441;SDS011;8838;50.144;8.176;2022-11-30T07:14:50;32.37;;;14.07;;
17441;SDS011;8838;50.144;8.176;2022-11-30T07:17:21;32.83;;;14.03;;
17441;SDS011;8838;50.144;8.176;2022-11-30T07:19:48;29.93;;;13.13;;
17441;SDS011;8838;50.144;8.176;2022-11-30T07:22:15;32.63;;;14.03;;
17441;SDS011;8838;50.144;8.176;2022-11-30T07:24:42;31.17;;;13.00;;
17441;SDS011;8838;50.144;8.176;2022-11-30T07:27:26;25.00;;;12.40;;
17441;SDS011;8838;50.144;8.176;2022-11-30T07:29:53;29.03;;;13.27;;
17441;SDS011;8838;50.144;8.176;2022-11-30T07:32:23;33.10;;;14.03;;
17441;SDS011;8838;50.144;8.176;2022-11-30T07:34:50;28.47;;;12.40;;
17441;SDS011;8838;50.144;8.176;2022-11-30T07:37:17;29.23;;;13.40;;
17441;SDS011;8838;50.144;8.176;2022-11-30T07:39:46;29.37;;;13.50;;
17441;SDS011;8838;50.144;8.176;2022-11-30T07:42:13;29.23;;;12.50;;
17441;SDS011;8838;50.144;8.176;2022-11-30T07:44:41;27.23;;;12.93;;
17441;SDS011;8838;50.144;8.176;2022-11-30T07:47:08;29.47;;;13.07;;
17441;SDS011;8838;50.144;8.176;2022-11-30T07:49:36;27.23;;;12.60;;
17441;SDS011;8838;50.144;8.176;2022-11-30T07:52:03;27.13;;;12.40;;
17441;SDS011;8838;50.144;8.176;2022-11-30T07:54:30;29.07;;;13.17;;
17441;SDS011;8838;50.144;8.176;2022-11-30T07:56:58;26.83;;;12.03;;
17441;SDS011;8838;50.144;8.176;2022-11-30T07:59:25;29.53;;;12.83;;
17441;SDS011;8838;50.144;8.176;2022-11-30T08:01:51;28.63;;;13.10;;
17441;SDS011;8838;50.144;8.176;2022-11-30T08:04:18;31.80;;;13.77;;
17441;SDS011;8838;50.144;8.176;2022-11-30T08:06:47;34.57;;;13.30;;
17441;SDS011;8838;50.144;8.176;2022-11-30T08:09:14;29.97;;;13.97;;
17441;SDS011;8838;50.144;8.176;2022-11-30T08:11:43;34.40;;;13.10;;
17441;SDS011;8838;50.144;8.176;2022-11-30T08:14:10;34.90;;;14.63;;
17441;SDS011;8838;50.144;8.176;2022-11-30T08:16:37;43.37;;;16.10;;
17441;SDS011;8838;50.144;8.176;2022-11-30T08:19:04;46.87;;;16.33;;
17441;SDS011;8838;50.144;8.176;2022-11-30T08:21:31;50.10;;;17.17;;
17441;SDS011;8838;50.144;8.176;2022-11-30T08:23:59;48.67;;;17.47;;
17441;SDS011;8838;50.144;8.176;2022-11-30T08:26:27;47.07;;;17.33;;
17441;SDS011;8838;50.144;8.176;2022-11-30T08:28:55;58.03;;;18.33;;
17441;SDS011;8838;50.144;8.176;2022-11-30T08:31:24;58.87;;;19.33;;
17441;SDS011;8838;50.144;8.176;2022-11-30T08:33:53;57.20;;;19.37;;
17441;SDS011;8838;50.144;8.176;2022-11-30T08:36:22;56.50;;;19.43;;
17441;SDS011;8838;50.144;8.176;2022-11-30T08:38:50;60.23;;;21.10;;
17441;SDS011;8838;50.144;8.176;2022-11-30T08:41:18;54.83;;;20.37;;
17441;SDS011;8838;50.144;8.176;2022-11-30T08:43:47;60.20;;;19.87;;
17441;SDS011;8838;50.144;8.176;2022-11-30T08:46:15;61.27;;;19.70;;
17441;SDS011;8838;50.144;8.176;2022-11-30T08:48:43;59.73;;;20.47;;
17441;SDS011;8838;50.144;8.176;2022-11-30T08:51:11;54.10;;;19.87;;
17441;SDS011;8838;50.144;8.176;2022-11-30T08:53:39;53.97;;;20.13;;
17441;SDS011;8838;50.144;8.176;2022-11-30T08:56:07;56.37;;;20.70;;
17441;SDS011;8838;50.144;8.176;2022-11-30T08:58:39;55.37;;;20.93;;
17441;SDS011;8838;50.144;8.176;2022-11-30T09:01:07;54.00;;;20.77;;
17441;SDS011;8838;50.144;8.176;2022-11-30T09:03:35;58.27;;;21.00;;
17441;SDS011;8838;50.144;8.176;2022-11-30T09:06:02;57.30;;;20.70;;
17441;SDS011;8838;50.144;8.176;2022-11-30T09:08:31;52.80;;;19.97;;
17441;SDS011;8838;50.144;8.176;2022-11-30T09:10:58;48.83;;;20.00;;
17441;SDS011;8838;50.144;8.176;2022-11-30T09:13:32;58.20;;;21.77;;
17441;SDS011;8838;50.144;8.176;2022-11-30T09:16:01;56.07;;;21.40;;
17441;SDS011;8838;50.144;8.176;2022-11-30T09:18:28;55.87;;;21.53;;
17441;SDS011;8838;50.144;8.176;2022-11-30T09:20:57;59.47;;;22.43;;
17441;SDS011;8838;50.144;8.176;2022-11-30T09:23:25;57.50;;;20.53;;
17441;SDS011;8838;50.144;8.176;2022-11-30T09:25:53;59.60;;;22.77;;
17441;SDS011;8838;50.144;8.176;2022-11-30T09:28:21;66.33;;;23.63;;
17441;SDS011;8838;50.144;8.176;2022-11-30T09:30:48;70.50;;;24.00;;
17441;SDS011;8838;50.144;8.176;2022-11-30T09:33:16;68.07;;;24.30;;
17441;SDS011;8838;50.144;8.176;2022-11-30T09:35:43;66.97;;;23.60;;
17441;SDS011;8838;50.144;8.176;2022-11-30T09:38:10;64.43;;;22.47;;
17441;SDS011;8838;50.144;8.176;2022-11-30T09:40:37;56.33;;;22.23;;
17441;SDS011;8838;50.144;8.176;2022-11-30T09:43:05;62.70;;;21.53;;
17441;SDS011;8838;50.144;8.176;2022-11-30T09:45:43;65.80;;;23.50;;
17441;SDS011;8838;50.144;8.176;2022-11-30T09:48:22;69.47;;;24.37;;
17441;SDS011;8838;50.144;8.176;2022-11-30T09:50:59;70.10;;;23.80;;
17441;SDS011;8838;50.144;8.176;2022-11-30T09:53:36;61.60;;;23.53;;
17441;SDS011;8838;50.144;8.176;2022-11-30T09:56:05;65.23;;;24.17;;
17441;SDS011;8838;50.144;8.176;2022-11-30T09:58:45;69.23;;;24.50;;
17441;SDS011;8838;50.144;8.176;2022-11-30T10:01:15;69.50;;;23.97;;
17441;SDS011;8838;50.144;8.176;2022-11-30T10:03:44;74.40;;;23.97;;
17441;SDS011;8838;50.144;8.176;2022-11-30T10:06:14;73.17;;;24.77;;
17441;SDS011;8838;50.144;8.176;2022-11-30T10:08:52;70.70;;;24.67;;
17441;SDS011;8838;50.144;8.176;2022-11-30T10:11:40;70.57;;;25.00;;
17441;SDS011;8838;50.144;8.176;2022-11-30T10:14:17;69.03;;;23.60;;
17441;SDS011;8838;50.144;8.176;2022-11-30T10:17:05;68.60;;;23.80;;
17441;SDS011;8838;50.144;8.176;2022-11-30T10:19:45;70.60;;;24.20;;
17441;SDS011;8838;50.144;8.176;2022-11-30T10:22:24;63.03;;;22.50;;
17441;SDS011;8838;50.144;8.176;2022-11-30T10:25:05;61.43;;;22.77;;
17441;SDS011;8838;50.144;8.176;2022-11-30T10:27:45;70.17;;;23.47;;
17441;SDS011;8838;50.144;8.176;2022-11-30T10:30:16;61.17;;;23.37;;
17441;SDS011;8838;50.144;8.176;2022-11-30T10:32:47;61.37;;;22.57;;
17441;SDS011;8838;50.144;8.176;2022-11-30T10:35:20;55.40;;;22.37;;
17441;SDS011;8838;50.144;8.176;2022-11-30T10:37:52;54.07;;;21.53;;
17441;SDS011;8838;50.144;8.176;2022-11-30T10:40:27;50.30;;;20.33;;
17441;SDS011;8838;50.144;8.176;2022-11-30T10:43:03;41.80;;;18.00;;
17441;SDS011;8838;50.144;8.176;2022-11-30T10:45:41;44.63;;;19.27;;
17441;SDS011;8838;50.144;8.176;2022-11-30T10:48:13;34.30;;;16.47;;
17441;SDS011;8838;50.144;8.176;2022-11-30T10:50:44;40.43;;;18.30;;
17441;SDS011;8838;50.144;8.176;2022-11-30T10:53:11;40.60;;;18.47;;
17441;SDS011;8838;50.144;8.176;2022-11-30T10:55:39;37.67;;;17.03;;
17441;SDS011;8838;50.144;8.176;2022-11-30T10:58:11;37.03;;;17.20;;
17441;SDS011;8838;50.144;8.176;2022-11-30T11:00:45;36.03;;;17.50;;
17441;SDS011;8838;50.144;8.176;2022-11-30T11:03:23;31.73;;;16.17;;
17441;SDS011;8838;50.144;8.176;2022-11-30T11:06:11;40.03;;;17.33;;
17441;SDS011;8838;50.144;8.176;2022-11-30T11:08:41;36.83;;;18.20;;
17441;SDS011;8838;50.144;8.176;2022-11-30T11:11:30;39.80;;;19.10;;
17441;SDS011;8838;50.144;8.176;2022-11-30T11:16:47;44.03;;;19.20;;
17441;SDS011;8838;50.144;8.176;2022-11-30T11:22:13;41.33;;;18.17;;
17441;SDS011;8838;50.144;8.176;2022-11-30T11:24:42;37.07;;;17.77;;
17441;SDS011;8838;50.144;8.176;2022-11-30T11:27:17;36.13;;;17.23;;
17441;SDS011;8838;50.144;8.176;2022-11-30T11:29:55;37.53;;;17.57;;
17441;SDS011;8838;50.144;8.176;2022-11-30T11:32:27;34.33;;;15.97;;
17441;SDS011;8838;50.144;8.176;2022-11-30T11:34:55;34.73;;;16.70;;
17441;SDS011;8838;50.144;8.176;2022-11-30T11:37:25;39.97;;;18.03;;
17441;SDS011;8838;50.144;8.176;2022-11-30T11:39:56;42.10;;;18.83;;
17441;SDS011;8838;50.144;8.176;2022-11-30T11:42:25;35.60;;;17.13;;
17441;SDS011;8838;50.144;8.176;2022-11-30T11:44:54;34.97;;;17.43;;
17441;SDS011;8838;50.144;8.176;2022-11-30T11:47:24;40.00;;;18.60;;
17441;SDS011;8838;50.144;8.176;2022-11-30T11:50:03;39.43;;;18.77;;
17441;SDS011;8838;50.144;8.176;2022-11-30T11:52:34;40.53;;;18.73;;
17441;SDS011;8838;50.144;8.176;2022-11-30T11:55:02;38.27;;;18.50;;
17441;SDS011;8838;50.144;8.176;2022-11-30T11:57:36;37.87;;;18.00;;
17441;SDS011;8838;50.144;8.176;2022-11-30T12:00:10;32.17;;;16.27;;
17441;SDS011;8838;50.144;8.176;2022-11-30T12:02:52;30.97;;;15.70;;
17441;SDS011;8838;50.144;8.176;2022-11-30T12:05:26;30.70;;;15.67;;
17441;SDS011;8838;50.144;8.176;2022-11-30T12:08:03;29.50;;;15.50;;
17441;SDS011;8838;50.144;8.176;2022-11-30T12:10:35;32.57;;;16.83;;
17441;SDS011;8838;50.144;8.176;2022-11-30T12:13:08;35.50;;;17.87;;
17441;SDS011;8838;50.144;8.176;2022-11-30T12:15:43;40.37;;;19.40;;
17441;SDS011;8838;50.144;8.176;2022-11-30T12:18:22;32.37;;;16.73;;
17441;SDS011;8838;50.144;8.176;2022-11-30T12:20:54;30.83;;;16.30;;
17441;SDS011;8838;50.144;8.176;2022-11-30T12:23:32;32.60;;;16.40;;
17441;SDS011;8838;50.144;8.176;2022-11-30T12:26:21;32.53;;;15.97;;
17441;SDS011;8838;50.144;8.176;2022-11-30T12:28:58;34.33;;;17.47;;
17441;SDS011;8838;50.144;8.176;2022-11-30T12:31:45;32.97;;;17.03;;
17441;SDS011;8838;50.144;8.176;2022-11-30T12:34:28;30.70;;;15.77;;
17441;SDS011;8838;50.144;8.176;2022-11-30T12:37:08;30.73;;;15.37;;
17441;SDS011;8838;50.144;8.176;2022-11-30T12:39:48;31.60;;;15.17;;
17441;SDS011;8838;50.144;8.176;2022-11-30T12:42:22;29.53;;;15.47;;
17441;SDS011;8838;50.144;8.176;2022-11-30T12:44:56;25.70;;;13.97;;
17441;SDS011;8838;50.144;8.176;2022-11-30T12:47:34;26.30;;;14.63;;
17441;SDS011;8838;50.144;8.176;2022-11-30T12:50:16;26.10;;;14.23;;
17441;SDS011;8838;50.144;8.176;2022-11-30T12:53:03;22.57;;;12.63;;
17441;SDS011;8838;50.144;8.176;2022-11-30T12:55:44;25.00;;;13.90;;
17441;SDS011;8838;50.144;8.176;2022-11-30T12:58:21;24.93;;;12.73;;
17441;SDS011;8838;50.144;8.176;2022-11-30T13:00:58;24.87;;;13.30;;
17441;SDS011;8838;50.144;8.176;2022-11-30T13:03:36;25.37;;;14.27;;
17441;SDS011;8838;50.144;8.176;2022-11-30T13:06:10;25.37;;;14.10;;
17441;SDS011;8838;50.144;8.176;2022-11-30T13:11:31;31.67;;;15.37;;
17441;SDS011;8838;50.144;8.176;2022-11-30T13:14:03;29.93;;;15.50;;
17441;SDS011;8838;50.144;8.176;2022-11-30T13:16:37;26.07;;;14.17;;
17441;SDS011;8838;50.144;8.176;2022-11-30T13:19:13;27.27;;;14.93;;
17441;SDS011;8838;50.144;8.176;2022-11-30T13:21:52;27.97;;;15.43;;
17441;SDS011;8838;50.144;8.176;2022-11-30T13:24:24;26.97;;;13.97;;
17441;SDS011;8838;50.144;8.176;2022-11-30T13:26:58;26.87;;;15.03;;
17441;SDS011;8838;50.144;8.176;2022-11-30T13:29:47;25.27;;;14.17;;
17441;SDS011;8838;50.144;8.176;2022-11-30T13:32:25;25.17;;;13.73;;
17441;SDS011;8838;50.144;8.176;2022-11-30T13:35:00;25.33;;;14.67;;
17441;SDS011;8838;50.144;8.176;2022-11-30T13:38:13;30.33;;;17.03;;
17441;SDS011;8838;50.144;8.176;2022-11-30T13:40:51;23.80;;;13.60;;
17441;SDS011;8838;50.144;8.176;2022-11-30T13:43:23;26.97;;;14.90;;
17441;SDS011;8838;50.144;8.176;2022-11-30T13:46:03;27.50;;;15.10;;
17441;SDS011;8838;50.144;8.176;2022-11-30T13:48:33;30.37;;;15.07;;
17441;SDS011;8838;50.144;8.176;2022-11-30T13:51:03;29.77;;;16.07;;
17441;SDS011;8838;50.144;8.176;2022-11-30T13:53:30;31.63;;;16.10;;
17441;SDS011;8838;50.144;8.176;2022-11-30T13:56:06;31.13;;;16.37;;
17441;SDS011;8838;50.144;8.176;2022-11-30T14:08:14;32.20;;;15.67;;
17441;SDS011;8838;50.144;8.176;2022-11-30T14:11:33;31.70;;;15.93;;
17441;SDS011;8838;50.144;8.176;2022-11-30T14:17:11;31.37;;;17.20;;
17441;SDS011;8838;50.144;8.176;2022-11-30T14:19:42;29.03;;;16.53;;
17441;SDS011;8838;50.144;8.176;2022-11-30T14:22:13;28.07;;;15.63;;
17441;SDS011;8838;50.144;8.176;2022-11-30T14:24:42;31.23;;;16.17;;
17441;SDS011;8838;50.144;8.176;2022-11-30T14:27:14;31.43;;;16.83;;
17441;SDS011;8838;50.144;8.176;2022-11-30T14:29:43;33.33;;;17.37;;
17441;SDS011;8838;50.144;8.176;2022-11-30T14:32:27;32.20;;;16.90;;
17441;SDS011;8838;50.144;8.176;2022-11-30T14:35:06;31.60;;;16.97;;
17441;SDS011;8838;50.144;8.176;2022-11-30T14:37:42;31.63;;;17.17;;
17441;SDS011;8838;50.144;8.176;2022-11-30T14:40:15;30.20;;;16.83;;
17441;SDS011;8838;50.144;8.176;2022-11-30T14:42:47;27.67;;;15.30;;
17441;SDS011;8838;50.144;8.176;2022-11-30T14:45:26;29.67;;;16.03;;
17441;SDS011;8838;50.144;8.176;2022-11-30T14:48:02;30.80;;;16.17;;
17441;SDS011;8838;50.144;8.176;2022-11-30T14:50:30;28.57;;;16.33;;
17441;SDS011;8838;50.144;8.176;2022-11-30T14:53:05;28.70;;;16.03;;
17441;SDS011;8838;50.144;8.176;2022-11-30T14:55:40;29.87;;;16.50;;
17441;SDS011;8838;50.144;8.176;2022-11-30T14:58:17;29.50;;;15.83;;
17441;SDS011;8838;50.144;8.176;2022-11-30T15:00:48;31.27;;;16.77;;
17441;SDS011;8838;50.144;8.176;2022-11-30T15:03:18;27.23;;;15.87;;
17441;SDS011;8838;50.144;8.176;2022-11-30T15:05:50;29.97;;;16.40;;
17441;SDS011;8838;50.144;8.176;2022-11-30T15:08:21;36.30;;;18.17;;
17441;SDS011;8838;50.144;8.176;2022-11-30T15:10:51;35.97;;;18.67;;
17441;SDS011;8838;50.144;8.176;2022-11-30T15:13:20;40.30;;;19.03;;
17441;SDS011;8838;50.144;8.176;2022-11-30T15:15:51;41.77;;;19.47;;
17441;SDS011;8838;50.144;8.176;2022-11-30T15:18:19;44.40;;;19.97;;